aviador You're here:

KDYR Decoded Metar

DYERSBURG in TN, USA
Report Time2018-05-21 23:56:00
UTC Time2018-05-22 00:10:45
Flight Rules vfr VFR
WindCalm
Visibility9999 m
Phenomena:N/A
Clouds:N/A
Expected CloudBase > 1,600 ft AGL from Temp-Dew spread
CeilingNone
Temp26°C (ISA +12)
Dew Point22°C (79% RH)
QNH1016 hPa
Density Alt1,936 ft
Elevation338 ft
Report Wrong Elevation
Raw Report
METAR KDYR 212356Z AUTO 00000KT 10SM CLR 26/22 A3000 RMK AO2 SLP170
6//// T02610217 10289 20250 56006 PNO $=

Extra information for KDYR:More info

Metar Taf Metar & Taf Last 4 Metars F.Rules Stats Wind Profile Meteogram Temp Stats Airport Information Weather charts Add Link Nearby VenuesMetar ALERT Operation Metar Decoded Social comments

AIRNAV info for KDYR